sensor_id;sensor_type;location;lat;lon;timestamp;temperature;humidity
9373;DHT22;10838;52.350;9.790;2022-08-20T17:03:25;24.60;92.70
9373;DHT22;10838;52.350;9.790;2022-08-20T17:05:55;25.20;92.30
9373;DHT22;10838;52.350;9.790;2022-08-20T17:08:25;25.20;92.30
9373;DHT22;10838;52.350;9.790;2022-08-20T17:10:57;25.20;92.40
9373;DHT22;10838;52.350;9.790;2022-08-20T17:13:26;25.20;92.40
9373;DHT22;10838;52.350;9.790;2022-08-20T17:15:55;25.20;92.40
9373;DHT22;10838;52.350;9.790;2022-08-20T17:18:27;25.20;92.40
9373;DHT22;10838;52.350;9.790;2022-08-20T17:20:59;25.20;92.40
9373;DHT22;10838;52.350;9.790;2022-08-20T17:23:25;25.20;92.60
9373;DHT22;10838;52.350;9.790;2022-08-20T17:25:58;25.20;92.50
9373;DHT22;10838;52.350;9.790;2022-08-20T17:28:26;25.20;92.40
9373;DHT22;10838;52.350;9.790;2022-08-20T17:30:53;25.20;92.40
9373;DHT22;10838;52.350;9.790;2022-08-20T17:33:28;25.20;92.40
9373;DHT22;10838;52.350;9.790;2022-08-20T17:35:57;25.20;92.40
9373;DHT22;10838;52.350;9.790;2022-08-20T17:38:35;25.10;92.40
9373;DHT22;10838;52.350;9.790;2022-08-20T17:41:07;25.10;92.40
9373;DHT22;10838;52.350;9.790;2022-08-20T17:43:34;25.10;92.40
9373;DHT22;10838;52.350;9.790;2022-08-20T17:46:05;25.10;92.40
9373;DHT22;10838;52.350;9.790;2022-08-20T17:48:37;25.10;92.40
9373;DHT22;10838;52.350;9.790;2022-08-20T17:51:13;25.00;92.30
9373;DHT22;10838;52.350;9.790;2022-08-20T17:53:42;25.00;92.30
9373;DHT22;10838;52.350;9.790;2022-08-20T17:56:15;24.90;92.40
9373;DHT22;10838;52.350;9.790;2022-08-20T17:58:47;24.90;92.20
9373;DHT22;10838;52.350;9.790;2022-08-20T18:01:14;24.90;92.10
9373;DHT22;10838;52.350;9.790;2022-08-20T18:03:46;24.90;92.00
9373;DHT22;10838;52.350;9.790;2022-08-20T18:06:18;24.80;91.80
9373;DHT22;10838;52.350;9.790;2022-08-20T18:08:51;24.80;91.70
9373;DHT22;10838;52.350;9.790;2022-08-20T18:11:26;24.80;91.50
9373;DHT22;10838;52.350;9.790;2022-08-20T18:14:04;24.80;91.40
9373;DHT22;10838;52.350;9.790;2022-08-20T18:16:43;24.70;91.40
9373;DHT22;10838;52.350;9.790;2022-08-20T18:19:14;24.70;91.30
9373;DHT22;10838;52.350;9.790;2022-08-20T18:21:54;24.60;91.30
9373;DHT22;10838;52.350;9.790;2022-08-20T18:24:32;24.60;91.20
9373;DHT22;10838;52.350;9.790;2022-08-20T18:27:03;24.60;91.20
9373;DHT22;10838;52.350;9.790;2022-08-20T18:29:35;24.60;91.30
9373;DHT22;10838;52.350;9.790;2022-08-20T18:32:06;24.50;91.30
9373;DHT22;10838;52.350;9.790;2022-08-20T18:34:39;24.50;91.40
9373;DHT22;10838;52.350;9.790;2022-08-20T18:37:20;24.50;91.40
9373;DHT22;10838;52.350;9.790;2022-08-20T18:39:48;24.40;91.40
9373;DHT22;10838;52.350;9.790;2022-08-20T18:42:23;24.40;91.30
9373;DHT22;10838;52.350;9.790;2022-08-20T18:44:52;24.40;91.20
9373;DHT22;10838;52.350;9.790;2022-08-20T18:47:21;24.40;91.20
9373;DHT22;10838;52.350;9.790;2022-08-20T18:50:01;24.30;91.20
9373;DHT22;10838;52.350;9.790;2022-08-20T18:52:32;24.30;91.20
9373;DHT22;10838;52.350;9.790;2022-08-20T18:55:01;24.30;91.30
9373;DHT22;10838;52.350;9.790;2022-08-20T18:57:30;24.20;91.30
9373;DHT22;10838;52.350;9.790;2022-08-20T19:00:03;24.20;91.40
9373;DHT22;10838;52.350;9.790;2022-08-20T19:02:34;24.20;91.30
9373;DHT22;10838;52.350;9.790;2022-08-20T19:05:09;24.10;91.30
9373;DHT22;10838;52.350;9.790;2022-08-20T19:07:42;24.10;91.30
9373;DHT22;10838;52.350;9.790;2022-08-20T19:10:24;24.00;91.30
9373;DHT22;10838;52.350;9.790;2022-08-20T19:13:18;24.00;91.30
9373;DHT22;10838;52.350;9.790;2022-08-20T19:15:57;23.90;91.30
9373;DHT22;10838;52.350;9.790;2022-08-20T19:18:29;23.90;91.40
9373;DHT22;10838;52.350;9.790;2022-08-20T19:21:01;23.90;91.40
9373;DHT22;10838;52.350;9.790;2022-08-20T19:23:36;23.80;91.30
9373;DHT22;10838;52.350;9.790;2022-08-20T19:26:06;23.80;91.30
9373;DHT22;10838;52.350;9.790;2022-08-20T19:28:40;23.80;91.30
9373;DHT22;10838;52.350;9.790;2022-08-20T19:31:09;23.70;91.30
9373;DHT22;10838;52.350;9.790;2022-08-20T19:33:37;23.70;91.30
9373;DHT22;10838;52.350;9.790;2022-08-20T19:36:13;23.70;91.30
9373;DHT22;10838;52.350;9.790;2022-08-20T19:38:42;23.70;91.40
9373;DHT22;10838;52.350;9.790;2022-08-20T19:41:09;23.60;91.40
9373;DHT22;10838;52.350;9.790;2022-08-20T19:43:42;23.60;91.50
9373;DHT22;10838;52.350;9.790;2022-08-20T19:46:12;23.60;91.40
9373;DHT22;10838;52.350;9.790;2022-08-20T19:48:49;23.60;91.30
9373;DHT22;10838;52.350;9.790;2022-08-20T19:51:26;23.60;91.30
9373;DHT22;10838;52.350;9.790;2022-08-20T19:53:55;23.50;91.30
9373;DHT22;10838;52.350;9.790;2022-08-20T19:56:24;23.50;91.30
9373;DHT22;10838;52.350;9.790;2022-08-20T19:58:59;23.40;91.40
9373;DHT22;10838;52.350;9.790;2022-08-20T20:01:26;23.40;91.50
9373;DHT22;10838;52.350;9.790;2022-08-20T20:03:56;23.40;91.50
9373;DHT22;10838;52.350;9.790;2022-08-20T20:06:25;23.40;91.50
9373;DHT22;10838;52.350;9.790;2022-08-20T20:08:56;23.30;91.60
9373;DHT22;10838;52.350;9.790;2022-08-20T20:11:27;23.30;91.60
9373;DHT22;10838;52.350;9.790;2022-08-20T20:14:00;23.20;91.60
9373;DHT22;10838;52.350;9.790;2022-08-20T20:16:29;23.20;91.60
9373;DHT22;10838;52.350;9.790;2022-08-20T20:18:56;23.20;91.50
9373;DHT22;10838;52.350;9.790;2022-08-20T20:21:34;23.20;91.40
9373;DHT22;10838;52.350;9.790;2022-08-20T20:24:02;23.20;91.40
9373;DHT22;10838;52.350;9.790;2022-08-20T20:26:31;23.10;91.40
9373;DHT22;10838;52.350;9.790;2022-08-20T20:29:02;23.10;91.40
9373;DHT22;10838;52.350;9.790;2022-08-20T20:31:36;23.10;91.40
9373;DHT22;10838;52.350;9.790;2022-08-20T20:34:10;23.00;91.40
9373;DHT22;10838;52.350;9.790;2022-08-20T20:36:40;23.00;91.40
9373;DHT22;10838;52.350;9.790;2022-08-20T20:39:19;23.00;91.30
9373;DHT22;10838;52.350;9.790;2022-08-20T20:41:50;22.90;91.20
9373;DHT22;10838;52.350;9.790;2022-08-20T20:44:19;22.90;91.20
9373;DHT22;10838;52.350;9.790;2022-08-20T20:46:47;22.80;91.20
9373;DHT22;10838;52.350;9.790;2022-08-20T20:49:21;22.80;91.20
9373;DHT22;10838;52.350;9.790;2022-08-20T20:51:56;22.70;91.20
9373;DHT22;10838;52.350;9.790;2022-08-20T20:54:27;22.70;91.20
9373;DHT22;10838;52.350;9.790;2022-08-20T20:57:00;22.70;91.20
9373;DHT22;10838;52.350;9.790;2022-08-20T20:59:28;22.60;91.30
9373;DHT22;10838;52.350;9.790;2022-08-20T21:01:56;22.60;91.40
9373;DHT22;10838;52.350;9.790;2022-08-20T21:04:23;22.50;91.40
9373;DHT22;10838;52.350;9.790;2022-08-20T21:06:51;22.40;91.40
9373;DHT22;10838;52.350;9.790;2022-08-20T21:09:20;22.40;91.40
9373;DHT22;10838;52.350;9.790;2022-08-20T21:11:48;22.30;91.50
9373;DHT22;10838;52.350;9.790;2022-08-20T21:14:15;22.20;91.50
9373;DHT22;10838;52.350;9.790;2022-08-20T21:16:42;22.10;91.50
9373;DHT22;10838;52.350;9.790;2022-08-20T21:19:10;22.10;91.50
9373;DHT22;10838;52.350;9.790;2022-08-20T21:21:38;22.00;91.50
9373;DHT22;10838;52.350;9.790;2022-08-20T21:24:05;21.90;91.50
9373;DHT22;10838;52.350;9.790;2022-08-20T21:26:34;21.80;91.50
9373;DHT22;10838;52.350;9.790;2022-08-20T21:29:01;21.80;91.60
9373;DHT22;10838;52.350;9.790;2022-08-20T21:31:31;21.70;91.60
9373;DHT22;10838;52.350;9.790;2022-08-20T21:33:58;21.60;91.60
9373;DHT22;10838;52.350;9.790;2022-08-20T21:36:25;21.50;91.60
9373;DHT22;10838;52.350;9.790;2022-08-20T21:38:52;21.40;91.60
9373;DHT22;10838;52.350;9.790;2022-08-20T21:41:19;21.30;91.70
9373;DHT22;10838;52.350;9.790;2022-08-20T21:43:47;21.30;91.70
9373;DHT22;10838;52.350;9.790;2022-08-20T21:46:13;21.20;91.70
9373;DHT22;10838;52.350;9.790;2022-08-20T21:48:40;21.00;91.70
9373;DHT22;10838;52.350;9.790;2022-08-20T21:51:06;21.00;91.70
9373;DHT22;10838;52.350;9.790;2022-08-20T21:53:33;20.90;91.70
9373;DHT22;10838;52.350;9.790;2022-08-20T21:56:00;20.80;91.80
9373;DHT22;10838;52.350;9.790;2022-08-20T21:58:27;20.70;91.80
9373;DHT22;10838;52.350;9.790;2022-08-20T22:00:56;20.70;91.80
9373;DHT22;10838;52.350;9.790;2022-08-20T22:03:26;20.60;91.90
9373;DHT22;10838;52.350;9.790;2022-08-20T22:05:53;20.60;91.90
9373;DHT22;10838;52.350;9.790;2022-08-20T22:08:21;20.50;91.90
9373;DHT22;10838;52.350;9.790;2022-08-20T22:10:49;20.40;91.90
9373;DHT22;10838;52.350;9.790;2022-08-20T22:13:17;20.30;91.90
9373;DHT22;10838;52.350;9.790;2022-08-20T22:15:44;20.30;92.00
9373;DHT22;10838;52.350;9.790;2022-08-20T22:18:12;20.20;92.00
9373;DHT22;10838;52.350;9.790;2022-08-20T22:20:39;20.10;92.00
9373;DHT22;10838;52.350;9.790;2022-08-20T22:23:06;20.00;92.10
9373;DHT22;10838;52.350;9.790;2022-08-20T22:25:33;20.00;92.10
9373;DHT22;10838;52.350;9.790;2022-08-20T22:28:00;19.90;92.10
9373;DHT22;10838;52.350;9.790;2022-08-20T22:30:27;19.80;92.10
9373;DHT22;10838;52.350;9.790;2022-08-20T22:32:55;19.80;92.10
9373;DHT22;10838;52.350;9.790;2022-08-20T22:35:26;19.70;92.20
9373;DHT22;10838;52.350;9.790;2022-08-20T22:37:53;19.60;92.20
9373;DHT22;10838;52.350;9.790;2022-08-20T22:40:20;19.60;92.20
9373;DHT22;10838;52.350;9.790;2022-08-20T22:42:47;19.50;92.20
9373;DHT22;10838;52.350;9.790;2022-08-20T22:45:13;19.50;92.20
9373;DHT22;10838;52.350;9.790;2022-08-20T22:47:40;19.40;92.20
9373;DHT22;10838;52.350;9.790;2022-08-20T22:50:08;19.40;92.30
9373;DHT22;10838;52.350;9.790;2022-08-20T22:52:38;19.30;92.30
9373;DHT22;10838;52.350;9.790;2022-08-20T22:55:07;19.20;92.30
9373;DHT22;10838;52.350;9.790;2022-08-20T22:57:34;19.10;92.30
9373;DHT22;10838;52.350;9.790;2022-08-20T23:00:00;19.10;92.30
9373;DHT22;10838;52.350;9.790;2022-08-20T23:02:27;19.10;92.40
9373;DHT22;10838;52.350;9.790;2022-08-20T23:04:54;19.00;92.40
9373;DHT22;10838;52.350;9.790;2022-08-20T23:07:20;18.90;92.40
9373;DHT22;10838;52.350;9.790;2022-08-20T23:09:48;18.90;92.40
9373;DHT22;10838;52.350;9.790;2022-08-20T23:12:15;18.80;92.40
9373;DHT22;10838;52.350;9.790;2022-08-20T23:14:41;18.80;92.40
9373;DHT22;10838;52.350;9.790;2022-08-20T23:17:14;18.70;92.40
9373;DHT22;10838;52.350;9.790;2022-08-20T23:19:43;18.60;92.50
9373;DHT22;10838;52.350;9.790;2022-08-20T23:22:10;18.60;92.50
9373;DHT22;10838;52.350;9.790;2022-08-20T23:24:37;18.60;92.50
9373;DHT22;10838;52.350;9.790;2022-08-20T23:27:07;18.50;92.50
9373;DHT22;10838;52.350;9.790;2022-08-20T23:29:35;18.50;92.50
9373;DHT22;10838;52.350;9.790;2022-08-20T23:32:02;18.40;92.50
9373;DHT22;10838;52.350;9.790;2022-08-20T23:34:28;18.40;92.60
9373;DHT22;10838;52.350;9.790;2022-08-20T23:36:56;18.30;92.60
9373;DHT22;10838;52.350;9.790;2022-08-20T23:39:24;18.30;92.60
9373;DHT22;10838;52.350;9.790;2022-08-20T23:41:51;18.20;92.60
9373;DHT22;10838;52.350;9.790;2022-08-20T23:44:19;18.20;92.60
9373;DHT22;10838;52.350;9.790;2022-08-20T23:46:46;18.10;92.60
9373;DHT22;10838;52.350;9.790;2022-08-20T23:49:12;18.10;92.60
9373;DHT22;10838;52.350;9.790;2022-08-20T23:51:39;18.00;92.70
9373;DHT22;10838;52.350;9.790;2022-08-20T23:54:06;18.00;92.70
9373;DHT22;10838;52.350;9.790;2022-08-20T23:56:33;18.00;92.70
9373;DHT22;10838;52.350;9.790;2022-08-20T23:58:59;17.90;92.70
